Time;durP1;ratioP1;P1;durP2;ratioP2;P2;SDS_P1;SDS_P2;PMS_P1;PMS_P2;Temp;Humidity;BMP_temperature;BMP_pressure;BME280_temperature;BME280_humidity;BME280_pressure;Samples;Min_cycle;Max_cycle;Signal;HPM_P1;HPM_P2
2024/02/24 00:02:13;;;;;;;5.70;1.50;;;4.90;1.00;;;;;;4997614;28;20205;-81
2024/02/24 00:04:40;;;;;;;3.90;1.60;;;5.10;1.00;;;;;;4994816;28;20623;-82
2024/02/24 00:07:07;;;;;;;5.43;1.50;;;5.00;1.00;;;;;;5001053;28;20205;-82
2024/02/24 00:09:34;;;;;;;3.23;1.17;;;5.00;1.00;;;;;;5002310;28;20236;-81
2024/02/24 00:12:02;;;;;;;3.33;1.50;;;5.00;1.00;;;;;;5001619;28;20623;-82
2024/02/24 00:14:29;;;;;;;8.53;1.57;;;5.10;1.00;;;;;;4994252;28;20263;-82
2024/02/24 00:16:56;;;;;;;3.00;1.20;;;4.90;1.00;;;;;;4998713;28;20645;-82
2024/02/24 00:19:23;;;;;;;3.10;2.27;;;4.80;1.00;;;;;;5000075;28;20584;-82
2024/02/24 00:21:50;;;;;;;3.77;1.27;;;4.80;1.00;;;;;;5001077;28;20636;-82
2024/02/24 00:24:17;;;;;;;4.70;1.10;;;4.80;1.00;;;;;;4998927;28;20232;-82
2024/02/24 00:26:44;;;;;;;3.83;1.20;;;5.10;1.00;;;;;;5010890;28;20205;-82
2024/02/24 00:29:12;;;;;;;3.00;1.30;;;5.00;1.00;;;;;;4997651;28;20225;-81
2024/02/24 00:31:40;;;;;;;3.77;1.30;;;5.10;1.00;;;;;;4998597;28;20576;-82
2024/02/24 00:34:07;;;;;;;2.20;1.20;;;5.10;1.00;;;;;;4998351;28;20201;-82
2024/02/24 00:36:34;;;;;;;6.43;1.40;;;5.00;1.00;;;;;;4999515;28;20232;-82
2024/02/24 00:39:01;;;;;;;3.80;1.50;;;5.00;1.00;;;;;;4997663;28;20217;-82
2024/02/24 00:41:27;;;;;;;7.60;1.47;;;5.00;1.00;;;;;;4997529;28;20197;-81
2024/02/24 00:43:54;;;;;;;4.73;1.40;;;4.90;1.00;;;;;;4990069;28;20209;-82
2024/02/24 00:46:22;;;;;;;5.67;1.73;;;4.90;1.00;;;;;;4995778;28;20488;-82
2024/02/24 00:48:49;;;;;;;4.60;1.30;;;4.80;1.00;;;;;;4996828;28;20288;-82
2024/02/24 00:51:16;;;;;;;2.43;1.20;;;4.90;1.00;;;;;;4997114;28;20267;-82
2024/02/24 00:53:43;;;;;;;3.50;1.60;;;4.60;1.00;;;;;;5001569;28;20232;-82
2024/02/24 00:56:10;;;;;;;1.90;1.00;;;4.40;1.00;;;;;;4995598;28;20217;-82
2024/02/24 00:58:37;;;;;;;3.43;1.13;;;4.20;99.90;;;;;;4995555;28;20220;-82
2024/02/24 01:01:04;;;;;;;3.60;1.17;;;4.00;99.90;;;;;;4994697;28;20197;-82
2024/02/24 01:03:32;;;;;;;4.57;2.03;;;4.00;99.90;;;;;;4996029;28;20220;-82
2024/02/24 01:05:59;;;;;;;3.97;1.70;;;3.90;99.90;;;;;;4987414;28;21453;-82
2024/02/24 01:08:26;;;;;;;4.23;1.40;;;4.00;1.00;;;;;;4989285;28;20202;-81
2024/02/24 01:10:53;;;;;;;6.83;1.57;;;4.00;1.00;;;;;;4989672;28;20217;-82
2024/02/24 01:13:20;;;;;;;4.20;1.50;;;4.00;1.00;;;;;;4994557;28;20201;-81
2024/02/24 01:15:47;;;;;;;3.17;1.10;;;4.00;1.00;;;;;;4995982;28;20201;-82
2024/02/24 01:18:14;;;;;;;3.73;1.20;;;4.30;99.90;;;;;;4996287;28;20205;-82
2024/02/24 01:20:48;;;;;;;5.00;1.40;;;4.50;99.90;;;;;;4993194;28;20197;-82
2024/02/24 01:23:15;;;;;;;5.57;1.43;;;4.60;99.90;;;;;;4988960;28;20626;-82
2024/02/24 01:25:41;;;;;;;3.13;1.00;;;4.50;99.90;;;;;;5002244;28;20287;-82
2024/02/24 01:28:08;;;;;;;2.97;1.30;;;4.50;99.90;;;;;;4993591;28;20205;-82
2024/02/24 01:30:36;;;;;;;3.57;1.50;;;4.70;28.60;;;;;;4999061;28;20233;-83
2024/02/24 01:33:04;;;;;;;3.83;1.23;;;4.80;1.00;;;;;;4989871;28;20213;-81
2024/02/24 01:35:31;;;;;;;6.07;1.43;;;4.70;1.00;;;;;;4995120;28;20652;-81
2024/02/24 01:37:58;;;;;;;2.27;1.20;;;4.60;1.00;;;;;;4993508;28;20264;-81
2024/02/24 01:40:24;;;;;;;3.87;1.43;;;4.60;20.40;;;;;;4995039;28;20308;-82
2024/02/24 01:42:51;;;;;;;2.37;1.33;;;4.60;94.20;;;;;;4991112;28;20244;-81
2024/02/24 01:45:18;;;;;;;1.57;1.10;;;4.70;1.00;;;;;;4990490;28;20601;-81
2024/02/24 01:47:45;;;;;;;3.73;1.63;;;4.50;34.00;;;;;;4996637;28;20284;-82
2024/02/24 01:50:12;;;;;;;2.80;1.27;;;4.70;12.10;;;;;;4996339;28;20638;-81
2024/02/24 01:52:41;;;;;;;5.10;1.37;;;4.70;1.00;;;;;;4989846;28;20251;-81
2024/02/24 01:55:11;;;;;;;4.00;1.50;;;4.60;1.00;;;;;;4988092;28;20205;-80
2024/02/24 01:57:42;;;;;;;4.50;1.47;;;4.70;1.00;;;;;;4995927;28;20298;-81
2024/02/24 02:00:10;;;;;;;6.87;1.70;;;5.00;1.00;;;;;;4990226;28;20221;-80
2024/02/24 02:02:38;;;;;;;6.73;1.50;;;4.70;1.00;;;;;;4989635;28;20237;-82
2024/02/24 02:05:06;;;;;;;2.30;0.90;;;4.70;1.00;;;;;;4989975;28;20306;-81
2024/02/24 02:07:33;;;;;;;4.70;1.23;;;4.60;1.00;;;;;;4993384;28;20734;-81
2024/02/24 02:10:01;;;;;;;7.17;1.23;;;4.60;1.00;;;;;;4993688;28;20225;-81
2024/02/24 02:12:31;;;;;;;5.57;1.30;;;4.70;1.00;;;;;;4990766;28;20627;-81
2024/02/24 02:14:58;;;;;;;2.33;1.13;;;5.00;1.00;;;;;;4990244;28;20228;-81
2024/02/24 02:17:25;;;;;;;6.67;1.43;;;5.00;1.00;;;;;;4998644;28;20259;-82
2024/02/24 02:19:52;;;;;;;2.27;1.10;;;4.90;1.00;;;;;;4998434;28;20252;-81
2024/02/24 02:22:19;;;;;;;4.47;1.80;;;4.80;1.00;;;;;;4992467;28;20609;-81
2024/02/24 02:24:48;;;;;;;4.87;1.60;;;5.00;1.00;;;;;;4988247;28;20284;-81
2024/02/24 02:27:15;;;;;;;1.97;1.30;;;5.00;1.00;;;;;;4990589;28;20233;-81
2024/02/24 02:29:42;;;;;;;3.37;1.57;;;5.00;1.00;;;;;;4998729;28;20251;-81
2024/02/24 02:32:09;;;;;;;3.70;1.30;;;4.90;1.00;;;;;;4996300;28;20239;-81
2024/02/24 02:34:35;;;;;;;1.77;1.00;;;4.90;1.00;;;;;;4995210;28;20241;-81
2024/02/24 02:37:02;;;;;;;6.63;1.50;;;5.00;1.00;;;;;;5000740;28;20549;-81
2024/02/24 02:39:29;;;;;;;1.53;1.10;;;4.80;1.00;;;;;;4999029;28;20232;-81
2024/02/24 02:41:57;;;;;;;3.77;1.37;;;4.90;1.00;;;;;;5005326;28;20226;-82
2024/02/24 02:44:24;;;;;;;3.63;1.70;;;4.80;1.00;;;;;;4999160;28;20244;-80
2024/02/24 02:46:52;;;;;;;2.07;0.97;;;4.80;1.00;;;;;;5008251;28;20284;-80
2024/02/24 02:49:19;;;;;;;3.33;1.57;;;4.80;1.00;;;;;;4993560;28;20221;-82
2024/02/24 02:51:46;;;;;;;5.33;1.60;;;4.70;1.00;;;;;;4997393;28;20609;-81
2024/02/24 02:54:13;;;;;;;3.60;1.30;;;4.50;1.00;;;;;;4989401;28;20293;-81
2024/02/24 02:56:40;;;;;;;6.33;1.40;;;4.80;1.00;;;;;;4991889;28;20711;-80
2024/02/24 02:59:08;;;;;;;4.57;1.10;;;4.70;1.00;;;;;;4993891;28;20252;-81
2024/02/24 03:01:35;;;;;;;5.40;1.37;;;4.60;1.00;;;;;;4991008;28;20599;-80
2024/02/24 03:04:02;;;;;;;2.93;1.20;;;4.60;1.00;;;;;;4988493;28;20197;-81
2024/02/24 03:06:31;;;;;;;2.97;1.20;;;4.40;1.00;;;;;;4993115;28;20584;-80
2024/02/24 03:08:58;;;;;;;3.63;1.47;;;4.90;1.00;;;;;;4991927;28;20296;-80
2024/02/24 03:11:25;;;;;;;3.17;1.77;;;4.80;1.00;;;;;;4992180;28;20273;-82
2024/02/24 03:13:52;;;;;;;3.07;1.40;;;4.80;1.00;;;;;;4989974;28;20288;-83
2024/02/24 03:16:21;;;;;;;1.67;1.07;;;4.40;1.00;;;;;;4990395;28;20337;-82
2024/02/24 03:18:47;;;;;;;3.97;1.43;;;4.10;99.90;;;;;;4999278;28;20590;-83
2024/02/24 03:21:24;;;;;;;1.40;1.10;;;3.90;99.90;;;;;;4991979;28;20212;-82
2024/02/24 03:23:51;;;;;;;2.03;1.00;;;4.00;1.00;;;;;;4996728;28;20196;-82
2024/02/24 03:26:18;;;;;;;2.27;1.20;;;3.50;1.00;;;;;;4997996;28;20228;-83
2024/02/24 03:28:45;;;;;;;2.00;1.23;;;3.40;1.00;;;;;;5003767;28;20610;-83
2024/02/24 03:31:12;;;;;;;3.57;1.30;;;3.40;1.00;;;;;;5003626;28;20226;-83
2024/02/24 03:33:40;;;;;;;1.73;1.03;;;3.40;59.80;;;;;;4996035;28;20272;-81
2024/02/24 03:36:07;;;;;;;2.90;1.37;;;3.50;1.00;;;;;;4995378;28;20284;-81
2024/02/24 03:38:34;;;;;;;2.10;1.23;;;3.50;1.00;;;;;;4987722;28;20650;-83
2024/02/24 03:41:01;;;;;;;3.80;1.27;;;3.90;1.00;;;;;;4992984;28;20197;-83
2024/02/24 03:43:28;;;;;;;3.73;1.50;;;4.30;1.00;;;;;;4997852;28;20486;-81
2024/02/24 03:45:55;;;;;;;3.73;1.30;;;4.40;99.90;;;;;;5002160;28;20651;-82
2024/02/24 03:48:22;;;;;;;8.47;1.37;;;4.50;99.90;;;;;;5008854;28;20232;-81
2024/02/24 03:50:50;;;;;;;4.57;1.50;;;4.90;46.90;;;;;;5002736;28;20218;-81
2024/02/24 03:53:17;;;;;;;1.83;1.17;;;4.80;1.00;;;;;;5008514;28;20562;-81
2024/02/24 03:55:44;;;;;;;2.67;1.27;;;4.80;1.00;;;;;;4997925;28;20205;-82
2024/02/24 03:58:12;;;;;;;3.23;1.20;;;4.80;1.00;;;;;;4993320;28;20292;-81
2024/02/24 04:00:39;;;;;;;2.47;1.27;;;4.90;1.00;;;;;;4991205;28;20257;-81
2024/02/24 04:03:06;;;;;;;5.47;1.30;;;4.90;1.00;;;;;;4989754;28;20309;-82
2024/02/24 04:05:33;;;;;;;6.23;1.97;;;4.90;1.00;;;;;;4989391;28;20292;-82
2024/02/24 04:08:01;;;;;;;2.20;1.20;;;5.00;1.00;;;;;;4995356;28;20211;-82
2024/02/24 04:10:28;;;;;;;3.47;1.47;;;5.00;1.00;;;;;;4990750;28;20392;-81
2024/02/24 04:12:55;;;;;;;2.73;1.33;;;4.80;1.00;;;;;;4990341;28;20224;-81
2024/02/24 04:15:23;;;;;;;5.67;1.67;;;4.70;1.00;;;;;;4991796;28;20205;-82
2024/02/24 04:17:50;;;;;;;3.87;1.73;;;4.80;1.00;;;;;;5001878;28;20305;-81
2024/02/24 04:20:18;;;;;;;3.30;1.23;;;4.80;1.00;;;;;;4998393;28;20248;-82
2024/02/24 04:22:44;;;;;;;3.63;1.10;;;4.90;1.00;;;;;;5001209;28;20664;-82
2024/02/24 04:25:13;;;;;;;4.00;1.20;;;4.90;1.00;;;;;;4994932;28;20710;-82
2024/02/24 04:27:40;;;;;;;1.73;1.17;;;4.70;1.00;;;;;;4998491;28;20220;-82
2024/02/24 04:30:08;;;;;;;2.33;1.20;;;4.70;1.00;;;;;;4991708;28;20225;-82
2024/02/24 04:32:34;;;;;;;4.13;1.50;;;4.60;1.00;;;;;;4990619;28;20253;-82
2024/02/24 04:35:03;;;;;;;6.30;1.50;;;4.50;1.00;;;;;;4992840;28;20200;-81
2024/02/24 04:37:30;;;;;;;6.13;1.47;;;4.70;1.00;;;;;;4990386;28;20232;-82
2024/02/24 04:39:57;;;;;;;2.40;1.47;;;4.60;1.00;;;;;;4997214;28;20227;-83
2024/02/24 04:42:25;;;;;;;2.50;1.27;;;4.60;1.00;;;;;;5003422;28;20279;-83
2024/02/24 04:44:52;;;;;;;3.03;1.27;;;4.50;1.00;;;;;;5000209;28;20633;-83
2024/02/24 04:47:22;;;;;;;4.43;1.57;;;4.50;1.00;;;;;;5001598;28;20245;-83
2024/02/24 04:49:49;;;;;;;3.30;1.20;;;4.50;1.00;;;;;;5002911;28;20229;-82
2024/02/24 04:52:16;;;;;;;1.80;1.33;;;4.60;1.00;;;;;;5001108;28;20327;-82
2024/02/24 04:54:43;;;;;;;5.70;1.53;;;4.40;1.00;;;;;;4996631;28;20224;-82
2024/02/24 04:57:10;;;;;;;2.73;1.40;;;4.30;37.20;;;;;;4994042;28;20233;-82
2024/02/24 04:59:38;;;;;;;3.17;1.40;;;4.20;93.50;;;;;;4996231;28;20308;-82
2024/02/24 05:02:05;;;;;;;4.23;1.53;;;4.30;99.90;;;;;;4984442;28;20287;-81
2024/02/24 05:04:32;;;;;;;4.70;1.70;;;4.10;99.90;;;;;;4991385;28;20276;-82
2024/02/24 05:06:59;;;;;;;3.50;1.63;;;4.30;99.90;;;;;;4995879;28;20618;-82
2024/02/24 05:09:26;;;;;;;5.73;1.70;;;4.20;99.90;;;;;;4989205;28;20252;-82
2024/02/24 05:11:52;;;;;;;4.80;1.50;;;4.30;99.90;;;;;;4999591;28;20227;-82
2024/02/24 05:14:19;;;;;;;2.87;1.30;;;4.20;99.90;;;;;;4992311;28;20229;-83
2024/02/24 05:16:47;;;;;;;1.50;1.10;;;4.30;99.90;;;;;;4996459;28;20571;-82
2024/02/24 05:19:14;;;;;;;6.00;1.60;;;4.30;99.90;;;;;;4994337;28;20245;-83
2024/02/24 05:21:42;;;;;;;4.93;1.87;;;3.90;99.90;;;;;;4991659;28;20217;-82
2024/02/24 05:24:10;;;;;;;2.37;1.10;;;3.80;99.90;;;;;;4992776;28;20215;-83
2024/02/24 05:26:37;;;;;;;7.97;1.73;;;3.80;1.00;;;;;;4989236;28;20209;-82
2024/02/24 05:29:04;;;;;;;5.93;1.70;;;4.00;99.90;;;;;;4988530;28;20217;-82
2024/02/24 05:31:30;;;;;;;5.30;1.40;;;3.90;99.90;;;;;;4985966;28;20265;-82
2024/02/24 05:33:59;;;;;;;4.77;1.27;;;3.90;99.90;;;;;;4999225;28;20349;-82
2024/02/24 05:36:25;;;;;;;4.00;1.40;;;4.50;99.90;;;;;;4986636;28;20712;-82
2024/02/24 05:38:52;;;;;;;2.87;1.40;;;4.00;99.90;;;;;;4987845;28;20221;-83
2024/02/24 05:41:19;;;;;;;3.23;1.50;;;4.10;99.90;;;;;;4990930;28;20322;-82
2024/02/24 05:43:46;;;;;;;3.50;1.90;;;4.10;99.90;;;;;;4995168;28;20292;-81
2024/02/24 05:46:17;;;;;;;3.83;1.53;;;4.20;99.90;;;;;;4991388;28;20201;-82
2024/02/24 05:48:45;;;;;;;4.57;1.93;;;4.10;99.90;;;;;;4996428;28;20225;-82
2024/02/24 05:51:13;;;;;;;4.53;1.53;;;4.30;99.90;;;;;;5003041;28;20225;-82
2024/02/24 05:53:41;;;;;;;5.20;1.97;;;4.20;99.90;;;;;;4994249;28;20208;-82
2024/02/24 05:56:08;;;;;;;3.03;1.40;;;4.20;99.90;;;;;;5001237;28;20227;-82
2024/02/24 05:58:35;;;;;;;3.27;1.80;;;4.20;99.90;;;;;;5004785;28;20229;-82
2024/02/24 06:01:03;;;;;;;5.77;1.40;;;4.20;99.90;;;;;;5002661;28;20296;-82
2024/02/24 06:03:30;;;;;;;6.20;1.73;;;4.30;99.90;;;;;;5004667;28;20209;-82
2024/02/24 06:05:57;;;;;;;5.17;1.80;;;4.40;99.90;;;;;;5014561;28;20209;-82
2024/02/24 06:08:25;;;;;;;5.80;1.70;;;4.60;99.90;;;;;;5003890;28;20201;-83
2024/02/24 06:10:52;;;;;;;3.70;1.50;;;4.40;99.90;;;;;;4992221;28;20220;-82
2024/02/24 06:13:20;;;;;;;4.07;1.40;;;4.60;99.90;;;;;;4997617;28;20596;-82
2024/02/24 06:15:46;;;;;;;5.10;1.50;;;4.60;99.90;;;;;;4998210;28;20201;-82
2024/02/24 06:18:15;;;;;;;4.20;1.63;;;4.50;99.90;;;;;;4992505;28;20201;-83
2024/02/24 06:20:42;;;;;;;4.03;1.50;;;4.60;99.90;;;;;;4996514;28;20212;-83
2024/02/24 06:23:09;;;;;;;2.67;1.33;;;4.60;99.90;;;;;;4989896;28;20205;-81
2024/02/24 06:25:38;;;;;;;3.90;1.60;;;4.70;99.90;;;;;;4998590;28;20210;-82
2024/02/24 06:28:06;;;;;;;3.17;1.30;;;4.80;99.90;;;;;;4996601;28;20201;-82
2024/02/24 06:30:33;;;;;;;4.10;1.63;;;4.80;99.90;;;;;;4998755;28;20236;-81
2024/02/24 06:33:00;;;;;;;2.97;1.40;;;4.80;76.30;;;;;;4996067;28;20291;-81
2024/02/24 06:35:27;;;;;;;4.77;1.70;;;4.90;34.50;;;;;;4996822;28;20201;-82
2024/02/24 06:37:53;;;;;;;2.93;1.50;;;5.60;1.00;;;;;;5000904;28;20571;-82
2024/02/24 06:40:20;;;;;;;4.20;1.77;;;5.00;1.00;;;;;;4995777;28;20790;-81
2024/02/24 06:42:49;;;;;;;2.53;1.60;;;5.10;1.00;;;;;;5003661;28;20288;-83
2024/02/24 06:45:16;;;;;;;2.47;1.50;;;5.10;1.00;;;;;;5000739;28;20671;-82
2024/02/24 06:47:43;;;;;;;5.07;1.97;;;5.10;1.00;;;;;;4992322;28;20252;-83
2024/02/24 06:50:10;;;;;;;3.43;1.70;;;5.10;1.00;;;;;;4981577;28;20320;-83
2024/02/24 06:52:37;;;;;;;3.30;1.67;;;5.30;1.00;;;;;;5001588;28;20645;-83
2024/02/24 06:55:05;;;;;;;4.37;1.70;;;5.30;1.00;;;;;;4993192;28;20213;-82
2024/02/24 06:57:32;;;;;;;6.47;2.07;;;5.40;1.00;;;;;;4994462;28;20273;-82
2024/02/24 07:00:01;;;;;;;3.57;1.63;;;5.40;1.00;;;;;;4990480;28;20308;-82
2024/02/24 07:02:28;;;;;;;5.20;2.20;;;5.40;1.00;;;;;;4989701;28;20208;-83
2024/02/24 07:04:55;;;;;;;3.00;1.67;;;5.40;1.00;;;;;;5003087;28;20217;-83
2024/02/24 07:07:22;;;;;;;4.87;1.87;;;5.40;1.00;;;;;;4997259;28;20279;-83
2024/02/24 07:09:48;;;;;;;6.50;2.03;;;5.40;1.00;;;;;;4995682;28;20236;-81
2024/02/24 07:12:15;;;;;;;4.83;2.00;;;5.50;1.00;;;;;;4996057;28;20289;-82
2024/02/24 07:14:42;;;;;;;3.67;1.90;;;5.50;1.00;;;;;;5000842;28;20739;-82
2024/02/24 07:17:11;;;;;;;5.50;2.10;;;5.50;1.00;;;;;;4999614;28;20264;-83
2024/02/24 07:19:37;;;;;;;3.47;1.77;;;5.40;1.00;;;;;;5000265;28;20225;-83
2024/02/24 07:22:04;;;;;;;5.90;1.80;;;5.50;1.00;;;;;;4997724;28;20688;-82
2024/02/24 07:24:31;;;;;;;3.90;1.67;;;5.40;1.00;;;;;;4991838;28;20299;-82
2024/02/24 07:26:58;;;;;;;2.90;1.77;;;5.40;1.00;;;;;;5001549;28;20232;-83
2024/02/24 07:29:25;;;;;;;4.03;1.80;;;5.50;1.00;;;;;;4991821;28;20217;-83
2024/02/24 07:31:52;;;;;;;1.67;1.57;;;5.60;1.00;;;;;;4999345;28;20257;-82
2024/02/24 07:34:20;;;;;;;4.83;1.87;;;5.70;1.00;;;;;;4999857;28;20208;-82
2024/02/24 07:36:47;;;;;;;2.70;1.63;;;5.90;1.00;;;;;;4997676;28;20652;-82
2024/02/24 07:39:14;;;;;;;2.87;1.80;;;5.80;1.00;;;;;;4996458;28;20235;-82
2024/02/24 07:41:41;;;;;;;3.50;1.93;;;5.80;1.00;;;;;;4999376;28;20656;-82
2024/02/24 07:44:08;;;;;;;3.10;1.90;;;5.80;1.00;;;;;;4999217;28;20219;-82
2024/02/24 07:46:35;;;;;;;3.27;1.60;;;6.00;1.00;;;;;;4989833;28;20248;-82
2024/02/24 07:49:02;;;;;;;4.13;1.80;;;6.20;1.00;;;;;;4994835;28;20275;-82
2024/02/24 07:51:31;;;;;;;2.80;1.80;;;6.30;1.00;;;;;;4995787;28;20710;-83
2024/02/24 07:53:58;;;;;;;3.90;2.00;;;6.50;1.00;;;;;;5007637;28;20205;-82
2024/02/24 07:56:27;;;;;;;5.50;2.00;;;6.70;1.00;;;;;;5010821;28;20196;-82
2024/02/24 07:58:54;;;;;;;4.43;1.97;;;6.90;1.00;;;;;;4998459;28;20692;-81
2024/02/24 08:01:21;;;;;;;4.30;1.90;;;7.60;1.00;;;;;;4997673;28;20203;-82
2024/02/24 08:03:48;;;;;;;4.13;1.60;;;9.20;1.00;;;;;;5007620;28;20236;-83
2024/02/24 08:06:15;;;;;;;2.67;1.47;;;9.60;99.90;;;;;;5003376;28;20296;-83
2024/02/24 08:08:43;;;;;;;4.47;1.90;;;9.60;99.90;;;;;;5005851;28;20248;-84
2024/02/24 08:11:10;;;;;;;8.00;1.70;;;9.50;99.90;;;;;;4997812;28;20197;-82
2024/02/24 08:13:41;;;;;;;2.07;1.27;;;8.90;99.90;;;;;;4994661;28;20284;-82
2024/02/24 08:16:09;;;;;;;2.30;1.30;;;9.30;99.90;;;;;;5002313;28;20220;-82
2024/02/24 08:18:36;;;;;;;1.77;1.33;;;9.40;67.90;;;;;;4997305;28;20240;-82
2024/02/24 08:21:06;;;;;;;2.97;1.30;;;9.80;59.00;;;;;;4988485;28;20598;-83
2024/02/24 08:23:34;;;;;;;2.60;1.70;;;10.60;43.90;;;;;;5007027;28;20197;-83
2024/02/24 08:26:02;;;;;;;2.00;1.37;;;10.40;1.00;;;;;;4999361;28;20665;-83
2024/02/24 08:28:29;;;;;;;2.27;1.30;;;10.30;1.00;;;;;;4996655;28;20233;-83
2024/02/24 08:30:56;;;;;;;3.77;1.40;;;9.20;1.00;;;;;;4996718;28;20205;-83
2024/02/24 08:33:23;;;;;;;3.27;1.37;;;9.20;1.00;;;;;;4994678;28;20683;-83
2024/02/24 08:35:50;;;;;;;2.90;1.40;;;9.90;1.00;;;;;;4991779;28;20201;-82
2024/02/24 08:38:17;;;;;;;2.00;1.33;;;9.70;1.00;;;;;;5001271;28;20204;-82
2024/02/24 08:40:44;;;;;;;2.33;1.57;;;9.50;1.00;;;;;;4999637;28;20240;-82
2024/02/24 08:43:13;;;;;;;1.87;1.40;;;8.90;1.00;;;;;;4998783;28;20211;-82
2024/02/24 08:45:41;;;;;;;4.07;1.30;;;8.80;1.00;;;;;;4989562;28;20233;-82
2024/02/24 08:48:08;;;;;;;4.17;1.57;;;8.70;1.00;;;;;;4999081;28;20264;-82
2024/02/24 08:50:35;;;;;;;3.17;1.40;;;9.40;1.00;;;;;;4997376;28;20279;-83
2024/02/24 08:53:02;;;;;;;2.27;1.30;;;8.70;1.00;;;;;;4999527;28;20683;-83
2024/02/24 08:55:28;;;;;;;1.93;1.20;;;8.10;1.00;;;;;;4994444;28;20233;-82
2024/02/24 08:57:55;;;;;;;2.27;1.00;;;7.80;1.00;;;;;;4990310;28;20201;-83
2024/02/24 09:00:24;;;;;;;2.33;1.30;;;7.80;1.00;;;;;;4997572;28;20589;-82
2024/02/24 09:02:51;;;;;;;3.10;1.30;;;7.70;51.30;;;;;;5002981;28;20683;-83
2024/02/24 09:05:18;;;;;;;1.87;1.30;;;7.80;22.60;;;;;;4994851;28;20224;-82
2024/02/24 09:07:44;;;;;;;1.40;1.20;;;7.90;63.10;;;;;;4990346;28;20259;-83
2024/02/24 09:10:11;;;;;;;2.60;1.40;;;8.00;5.60;;;;;;4998430;28;20225;-82
2024/02/24 09:12:38;;;;;;;3.43;1.07;;;8.30;47.00;;;;;;5002902;28;20221;-80
2024/02/24 09:15:06;;;;;;;1.60;1.33;;;8.40;1.00;;;;;;4985797;28;20212;-83
2024/02/24 09:17:34;;;;;;;3.27;1.40;;;8.30;1.00;;;;;;4992324;28;20213;-82
2024/02/24 09:20:01;;;;;;;3.00;1.30;;;8.50;3.40;;;;;;5000167;28;20730;-83
2024/02/24 09:22:28;;;;;;;3.13;1.60;;;8.60;1.00;;;;;;4999812;28;20235;-83
2024/02/24 09:24:55;;;;;;;2.33;1.30;;;9.20;1.00;;;;;;4990953;28;20614;-82
2024/02/24 09:27:22;;;;;;;4.83;1.50;;;9.00;1.00;;;;;;4998056;28;20192;-82
2024/02/24 09:29:49;;;;;;;2.93;1.40;;;9.30;1.00;;;;;;4991588;28;20256;-82
2024/02/24 09:32:17;;;;;;;2.73;1.43;;;9.10;1.00;;;;;;5002264;28;20699;-81
2024/02/24 09:34:46;;;;;;;2.03;1.60;;;8.90;1.00;;;;;;4991429;28;20280;-83
2024/02/24 09:37:13;;;;;;;1.80;1.40;;;9.10;1.00;;;;;;4992853;28;20232;-83
2024/02/24 09:39:41;;;;;;;3.17;1.43;;;9.00;1.00;;;;;;4998449;28;20336;-83
2024/02/24 09:42:09;;;;;;;3.17;1.53;;;9.20;1.00;;;;;;4990507;28;20244;-83
2024/02/24 09:44:36;;;;;;;3.73;1.70;;;9.10;1.00;;;;;;4992791;28;20675;-82
2024/02/24 09:47:04;;;;;;;2.63;1.43;;;9.00;1.00;;;;;;4998795;28;20201;-82
2024/02/24 09:49:32;;;;;;;1.60;1.50;;;8.90;1.00;;;;;;5001872;28;20232;-83
2024/02/24 09:52:00;;;;;;;2.80;1.70;;;8.90;1.00;;;;;;5001379;28;20232;-82
2024/02/24 09:54:29;;;;;;;5.03;2.20;;;9.10;1.00;;;;;;4996033;28;20201;-82
2024/02/24 09:56:57;;;;;;;1.70;1.40;;;9.30;1.00;;;;;;4987832;28;20255;-81
2024/02/24 09:59:25;;;;;;;1.90;1.20;;;9.30;1.00;;;;;;4992648;28;20223;-82
2024/02/24 10:01:52;;;;;;;2.93;1.30;;;9.30;1.00;;;;;;4989805;28;20205;-81
2024/02/24 10:04:20;;;;;;;2.80;1.60;;;9.10;1.00;;;;;;4997153;28;20233;-83
2024/02/24 10:06:47;;;;;;;2.83;1.80;;;8.90;1.00;;;;;;5003664;28;20201;-82
2024/02/24 10:09:15;;;;;;;3.97;1.70;;;8.90;1.00;;;;;;4982225;28;20299;-83
2024/02/24 10:11:42;;;;;;;2.27;1.40;;;8.80;1.00;;;;;;4994172;28;20223;-83
2024/02/24 10:14:09;;;;;;;2.30;1.80;;;8.70;1.00;;;;;;4996129;28;20288;-83
2024/02/24 10:16:37;;;;;;;4.03;1.97;;;8.50;1.00;;;;;;4988957;28;20206;-82
2024/02/24 10:19:06;;;;;;;2.23;1.60;;;8.50;1.00;;;;;;4984885;28;20229;-82
2024/02/24 10:21:33;;;;;;;4.13;1.60;;;8.50;1.00;;;;;;4997592;28;20200;-83
2024/02/24 10:24:00;;;;;;;4.73;1.70;;;8.30;1.00;;;;;;4997776;28;20205;-80
2024/02/24 10:26:29;;;;;;;3.50;2.00;;;8.30;1.00;;;;;;5000522;28;20265;-81
2024/02/24 10:28:56;;;;;;;3.17;1.53;;;8.50;1.00;;;;;;5008351;28;20687;-80
2024/02/24 10:31:23;;;;;;;2.77;1.90;;;8.50;1.00;;;;;;4992775;28;20304;-80
2024/02/24 10:33:51;;;;;;;3.70;2.23;;;8.70;1.00;;;;;;4998244;28;20220;-81
2024/02/24 10:36:19;;;;;;;3.90;2.03;;;8.60;1.00;;;;;;4998252;28;20240;-81
2024/02/24 10:38:50;;;;;;;2.37;1.80;;;8.70;1.00;;;;;;4993600;28;20228;-81
2024/02/24 10:41:18;;;;;;;5.93;2.00;;;9.10;1.00;;;;;;4994026;28;20211;-81
2024/02/24 10:43:49;;;;;;;4.57;2.20;;;9.20;1.00;;;;;;4993351;28;20204;-81
2024/02/24 10:46:16;;;;;;;2.60;1.93;;;9.40;1.00;;;;;;5000308;28;20664;-81
2024/02/24 10:48:43;;;;;;;4.57;1.87;;;9.60;1.00;;;;;;4995606;28;20224;-81
2024/02/24 10:51:13;;;;;;;3.07;1.70;;;9.50;1.00;;;;;;4987993;28;20206;-82
2024/02/24 10:53:42;;;;;;;3.50;2.07;;;9.10;1.00;;;;;;4983633;28;20309;-81
2024/02/24 10:56:10;;;;;;;4.37;1.83;;;9.40;1.00;;;;;;5003876;28;20280;-82
2024/02/24 10:58:37;;;;;;;2.67;2.10;;;9.30;1.00;;;;;;4988985;28;20249;-81
2024/02/24 11:01:06;;;;;;;2.10;1.90;;;9.20;1.00;;;;;;4987075;28;20240;-80
2024/02/24 11:03:33;;;;;;;4.00;1.97;;;9.60;1.00;;;;;;4995062;28;20263;-81
2024/02/24 11:06:01;;;;;;;3.80;2.30;;;9.60;1.00;;;;;;4998122;28;20204;-81
2024/02/24 11:08:38;;;;;;;3.43;2.00;;;9.70;1.00;;;;;;5006403;28;20224;-80
2024/02/24 11:11:08;;;;;;;3.30;1.60;;;9.60;1.00;;;;;;4997958;28;20209;-81
2024/02/24 11:13:35;;;;;;;4.03;1.80;;;9.60;1.00;;;;;;4988707;28;20263;-80
2024/02/24 11:16:07;;;;;;;4.40;1.60;;;9.40;1.00;;;;;;4995503;28;20220;-82
2024/02/24 11:18:53;;;;;;;4.23;1.83;;;9.60;1.00;;;;;;4998242;28;20243;-82
2024/02/24 11:21:21;;;;;;;3.03;1.83;;;10.00;1.00;;;;;;4989156;28;20303;-81
2024/02/24 11:23:49;;;;;;;3.67;1.57;;;9.80;1.00;;;;;;4999421;28;20205;-82
2024/02/24 11:26:30;;;;;;;3.60;1.83;;;10.20;1.00;;;;;;4999712;28;20220;-82
2024/02/24 11:29:05;;;;;;;3.17;1.50;;;10.60;1.00;;;;;;4991873;28;20248;-82
2024/02/24 11:31:37;;;;;;;3.20;1.60;;;10.40;1.00;;;;;;4999972;28;20204;-82
2024/02/24 11:34:07;;;;;;;3.27;1.63;;;10.60;1.00;;;;;;5007879;28;20276;-81
2024/02/24 11:36:35;;;;;;;2.20;1.20;;;11.10;1.00;;;;;;5001055;28;20197;-82
2024/02/24 11:39:03;;;;;;;4.13;1.50;;;11.60;1.00;;;;;;5001609;28;20700;-81
2024/02/24 11:41:31;;;;;;;1.40;1.30;;;11.40;1.00;;;;;;4994113;28;20212;-82
2024/02/24 11:43:58;;;;;;;3.20;1.50;;;11.00;1.00;;;;;;4999516;28;20201;-82
2024/02/24 11:46:27;;;;;;;3.00;1.30;;;11.20;1.00;;;;;;4999158;28;20224;-81
2024/02/24 11:48:55;;;;;;;2.03;1.40;;;11.10;1.00;;;;;;4995357;28;20225;-81
2024/02/24 11:51:24;;;;;;;1.60;1.13;;;10.90;1.00;;;;;;4996902;28;20206;-82
2024/02/24 11:53:51;;;;;;;1.23;1.13;;;11.00;1.00;;;;;;4996052;28;20220;-82
2024/02/24 11:56:18;;;;;;;3.10;1.23;;;10.40;1.00;;;;;;4998662;28;20209;-81
2024/02/24 11:58:45;;;;;;;3.47;1.30;;;10.40;1.00;;;;;;4994820;28;20707;-82
2024/02/24 12:01:13;;;;;;;1.83;0.90;;;10.20;1.00;;;;;;4994485;28;20693;-82
2024/02/24 12:03:40;;;;;;;2.53;1.50;;;10.30;1.00;;;;;;4994810;28;20232;-82
2024/02/24 12:06:09;;;;;;;2.37;1.20;;;10.00;1.00;;;;;;4994200;28;20197;-82
2024/02/24 12:08:37;;;;;;;1.13;0.90;;;9.90;1.00;;;;;;4992591;28;20244;-80
2024/02/24 12:11:04;;;;;;;1.30;0.90;;;9.60;1.00;;;;;;4988186;28;20220;-80
2024/02/24 12:13:31;;;;;;;3.40;1.10;;;9.40;1.00;;;;;;4987346;28;20674;-80
2024/02/24 12:15:58;;;;;;;1.63;0.80;;;9.40;1.00;;;;;;4990492;28;20240;-78
2024/02/24 12:18:25;;;;;;;1.60;0.90;;;9.40;1.00;;;;;;4992413;28;20205;-80
2024/02/24 12:20:54;;;;;;;1.20;0.77;;;9.40;1.00;;;;;;4993293;28;20225;-79
2024/02/24 12:23:28;;;;;;;0.60;0.50;;;9.40;1.00;;;;;;4989649;28;20202;-79
2024/02/24 12:25:55;;;;;;;0.97;0.80;;;9.40;1.00;;;;;;4985932;28;20205;-79
2024/02/24 12:28:22;;;;;;;1.07;0.70;;;9.40;1.00;;;;;;4986550;28;20692;-80
2024/02/24 12:30:49;;;;;;;2.20;1.17;;;9.50;1.00;;;;;;4991739;28;20233;-80
2024/02/24 12:33:17;;;;;;;0.70;0.70;;;9.30;99.90;;;;;;4992434;28;20260;-80
2024/02/24 12:35:44;;;;;;;1.40;0.97;;;9.10;99.90;;;;;;4993047;28;20208;-80
2024/02/24 12:38:16;;;;;;;0.67;0.67;;;9.10;83.60;;;;;;4996469;28;20564;-79
2024/02/24 12:40:45;;;;;;;0.87;0.70;;;9.10;99.90;;;;;;4993752;28;20213;-81
2024/02/24 12:43:12;;;;;;;1.30;0.77;;;9.20;78.40;;;;;;4996266;28;20216;-80
2024/02/24 12:45:39;;;;;;;1.83;0.80;;;9.10;25.00;;;;;;4993155;28;20251;-79
2024/02/24 12:48:07;;;;;;;0.70;0.70;;;9.00;1.00;;;;;;4995448;28;20205;-79
2024/02/24 12:50:34;;;;;;;1.80;0.80;;;9.00;19.00;;;;;;4994431;28;20232;-78
2024/02/24 12:53:07;;;;;;;0.87;0.80;;;9.00;1.50;;;;;;4993699;28;20205;-79
2024/02/24 12:55:35;;;;;;;0.53;0.50;;;9.00;57.60;;;;;;4979842;28;20206;-79
2024/02/24 12:58:02;;;;;;;1.70;0.60;;;9.10;99.90;;;;;;4978549;28;20265;-80
2024/02/24 13:00:29;;;;;;;0.60;0.47;;;9.10;99.90;;;;;;4978630;28;20225;-80
2024/02/24 13:02:59;;;;;;;0.67;0.60;;;9.00;99.90;;;;;;4980460;28;20213;-80
2024/02/24 13:05:25;;;;;;;0.80;0.60;;;9.10;1.00;;;;;;4984297;28;20205;-80
2024/02/24 13:07:53;;;;;;;0.87;0.60;;;9.10;1.00;;;;;;4986266;28;20296;-80